Time;durP1;ratioP1;P1;durP2;ratioP2;P2;SDS_P1;SDS_P2;PMS_P1;PMS_P2;Temp;Humidity;BMP_temperature;BMP_pressure;BME280_temperature;BME280_humidity;BME280_pressure;Samples;Min_cycle;Max_cycle;Signal;HPM_P1;HPM_P2
2022/04/22 00:00:52;;;;;;;17.93;16.03;;;;;;;;;;5049811;28;20872;-76
2022/04/22 00:03:21;;;;;;;17.20;15.40;;;;;;;;;;5055164;28;20229;-76
2022/04/22 00:05:49;;;;;;;17.20;15.47;;;;;;;;;;5053157;28;20294;-75
2022/04/22 00:08:18;;;;;;;17.07;15.37;;;;;;;;;;5054039;28;20230;-76
2022/04/22 00:13:33;;;;;;;18.30;15.50;;;;;;;;;;5053882;28;20206;-76
2022/04/22 00:16:03;;;;;;;17.10;15.30;;;;;;;;;;5054977;28;20183;-76
2022/04/22 00:18:32;;;;;;;17.20;15.40;;;;;;;;;;5054549;28;20313;-75
2022/04/22 00:21:01;;;;;;;20.23;15.53;;;;;;;;;;5054121;28;20666;-76
2022/04/22 00:23:30;;;;;;;17.87;15.97;;;;;;;;;;5043446;28;20200;-76
2022/04/22 00:25:59;;;;;;;16.97;15.17;;;;;;;;;;5049915;28;20654;-76
2022/04/22 00:28:27;;;;;;;17.97;15.37;;;;;;;;;;5053795;28;20759;-76
2022/04/22 00:30:56;;;;;;;17.63;15.77;;;;;;;;;;5054711;28;20203;-75
2022/04/22 00:33:26;;;;;;;17.70;15.60;;;;;;;;;;5053732;28;20204;-76
2022/04/22 00:35:55;;;;;;;17.47;14.63;;;;;;;;;;5054345;28;20207;-76
2022/04/22 00:38:24;;;;;;;18.07;15.30;;;;;;;;;;5041608;28;20230;-76
2022/04/22 00:40:55;;;;;;;16.43;14.67;;;;;;;;;;5041606;28;20206;-75
2022/04/22 00:43:24;;;;;;;17.57;14.60;;;;;;;;;;5040397;28;20224;-75
2022/04/22 00:45:53;;;;;;;17.80;15.93;;;;;;;;;;5052503;28;20253;-76
2022/04/22 00:48:23;;;;;;;16.80;15.03;;;;;;;;;;5053465;28;20219;-76
2022/04/22 00:50:53;;;;;;;17.27;15.47;;;;;;;;;;5054009;28;20199;-75
2022/04/22 00:53:21;;;;;;;17.07;15.03;;;;;;;;;;5053443;28;20530;-76
2022/04/22 00:55:51;;;;;;;18.93;14.67;;;;;;;;;;5053405;28;20210;-76
2022/04/22 00:58:20;;;;;;;16.33;14.33;;;;;;;;;;5052973;28;20281;-75
2022/04/22 01:00:48;;;;;;;16.33;13.60;;;;;;;;;;5049168;28;20206;-76
2022/04/22 01:03:17;;;;;;;18.07;14.03;;;;;;;;;;5053778;28;20646;-75
2022/04/22 01:11:20;;;;;;;16.07;14.37;;;;;;;;;;5054108;28;20188;-75
2022/04/22 01:13:49;;;;;;;17.67;15.70;;;;;;;;;;5051242;28;20203;-75
2022/04/22 01:16:17;;;;;;;16.33;14.13;;;;;;;;;;5051050;28;20210;-75
2022/04/22 01:18:47;;;;;;;17.20;15.40;;;;;;;;;;5044481;28;20223;-75
2022/04/22 01:21:17;;;;;;;18.50;15.57;;;;;;;;;;5054157;28;20199;-75
2022/04/22 01:23:45;;;;;;;18.10;16.20;;;;;;;;;;5050218;28;20230;-76
2022/04/22 01:26:14;;;;;;;17.00;15.30;;;;;;;;;;5046615;28;20211;-75
2022/04/22 01:28:43;;;;;;;18.17;14.40;;;;;;;;;;5052513;28;20228;-75
2022/04/22 01:31:12;;;;;;;19.57;14.93;;;;;;;;;;5053332;28;20674;-75
2022/04/22 01:33:40;;;;;;;16.53;14.63;;;;;;;;;;5050841;28;20200;-75
2022/04/22 01:36:11;;;;;;;15.13;13.53;;;;;;;;;;5037278;28;20202;-75
2022/04/22 01:38:41;;;;;;;16.90;15.13;;;;;;;;;;5040971;28;20749;-75
2022/04/22 01:41:10;;;;;;;16.90;14.87;;;;;;;;;;5044240;28;20199;-76
2022/04/22 01:43:38;;;;;;;16.93;14.63;;;;;;;;;;5051463;28;20230;-76
2022/04/22 01:46:07;;;;;;;17.40;15.17;;;;;;;;;;5053003;28;20214;-75
2022/04/22 01:48:35;;;;;;;16.37;14.60;;;;;;;;;;5051835;28;20231;-75
2022/04/22 01:51:04;;;;;;;17.43;15.63;;;;;;;;;;5052957;28;20208;-76
2022/04/22 01:53:32;;;;;;;19.00;15.03;;;;;;;;;;5051691;28;20199;-76
2022/04/22 01:56:05;;;;;;;18.07;15.40;;;;;;;;;;5052401;28;20209;-75
2022/04/22 01:58:33;;;;;;;17.87;14.67;;;;;;;;;;5051782;28;20230;-75
2022/04/22 02:01:02;;;;;;;17.93;15.20;;;;;;;;;;5052132;28;20203;-75
2022/04/22 02:03:30;;;;;;;17.00;15.20;;;;;;;;;;5050414;28;20235;-76
2022/04/22 02:05:59;;;;;;;18.40;14.23;;;;;;;;;;5052168;28;20272;-75
2022/04/22 02:08:27;;;;;;;16.90;15.07;;;;;;;;;;5036583;28;20227;-75
2022/04/22 02:10:56;;;;;;;16.47;14.63;;;;;;;;;;5045842;28;20195;-76
2022/04/22 02:13:26;;;;;;;16.40;14.70;;;;;;;;;;5048370;28;20191;-76
2022/04/22 02:15:54;;;;;;;17.07;14.80;;;;;;;;;;5049631;28;20203;-76
2022/04/22 02:18:22;;;;;;;16.50;14.30;;;;;;;;;;5052480;28;20226;-76
2022/04/22 02:20:51;;;;;;;16.67;14.23;;;;;;;;;;5051657;28;20252;-76
2022/04/22 02:23:19;;;;;;;15.40;13.80;;;;;;;;;;5053151;28;20222;-76
2022/04/22 02:25:48;;;;;;;17.60;15.33;;;;;;;;;;5051204;28;20203;-76
2022/04/22 02:28:34;;;;;;;16.60;13.83;;;;;;;;;;5051960;28;20223;-75
2022/04/22 02:31:05;;;;;;;16.20;14.00;;;;;;;;;;5056753;28;20593;-76
2022/04/22 02:33:34;;;;;;;16.07;13.73;;;;;;;;;;5053706;28;20286;-76
2022/04/22 02:36:03;;;;;;;19.93;14.13;;;;;;;;;;5055602;28;20211;-76
2022/04/22 02:38:32;;;;;;;15.33;13.33;;;;;;;;;;5054879;28;20230;-76
2022/04/22 02:46:34;;;;;;;15.77;12.37;;;;;;;;;;5054108;28;20206;-76
2022/04/22 02:49:03;;;;;;;15.73;13.50;;;;;;;;;;5055506;28;20205;-76
2022/04/22 02:51:32;;;;;;;16.47;13.30;;;;;;;;;;5056645;28;20209;-75
2022/04/22 02:54:00;;;;;;;19.07;14.17;;;;;;;;;;5047927;28;20604;-76
2022/04/22 02:56:31;;;;;;;16.53;14.60;;;;;;;;;;5056150;28;20663;-75
2022/04/22 02:59:00;;;;;;;16.03;14.17;;;;;;;;;;5055671;28;20478;-75
2022/04/22 03:01:28;;;;;;;16.03;14.13;;;;;;;;;;5051785;28;20664;-76
2022/04/22 03:03:59;;;;;;;16.87;14.60;;;;;;;;;;5055909;28;20272;-76
2022/04/22 03:06:27;;;;;;;17.57;15.13;;;;;;;;;;5055416;28;20225;-76
2022/04/22 03:08:56;;;;;;;18.13;13.67;;;;;;;;;;5045414;28;20258;-76
2022/04/22 03:11:24;;;;;;;17.73;14.17;;;;;;;;;;5054507;28;20671;-75
2022/04/22 03:13:53;;;;;;;15.13;13.53;;;;;;;;;;5055684;28;20196;-75
2022/04/22 03:16:24;;;;;;;17.43;13.60;;;;;;;;;;5050391;28;20298;-76
2022/04/22 03:18:53;;;;;;;15.73;13.07;;;;;;;;;;5055372;28;20203;-76
2022/04/22 03:21:23;;;;;;;14.87;12.90;;;;;;;;;;5054884;28;20227;-76
2022/04/22 03:23:51;;;;;;;16.27;12.83;;;;;;;;;;5053707;28;20215;-76
2022/04/22 03:26:20;;;;;;;14.83;12.17;;;;;;;;;;5046319;28;20276;-75
2022/04/22 03:28:55;;;;;;;15.43;11.73;;;;;;;;;;5054141;28;20191;-76
2022/04/22 03:31:24;;;;;;;13.40;11.23;;;;;;;;;;5043393;28;20647;-76
2022/04/22 03:33:52;;;;;;;12.83;11.10;;;;;;;;;;5036030;28;20200;-76
2022/04/22 03:36:21;;;;;;;14.13;10.70;;;;;;;;;;5046143;28;20203;-76
2022/04/22 03:38:52;;;;;;;14.60;10.50;;;;;;;;;;5055164;28;20214;-76
2022/04/22 03:41:20;;;;;;;14.20;10.40;;;;;;;;;;5053398;28;20212;-76
2022/04/22 03:43:49;;;;;;;13.50;10.17;;;;;;;;;;5054797;28;20223;-76
2022/04/22 03:46:17;;;;;;;12.90;10.10;;;;;;;;;;5054709;28;20647;-75
2022/04/22 03:48:46;;;;;;;13.20;9.37;;;;;;;;;;5055136;28;20223;-75
2022/04/22 03:51:15;;;;;;;11.90;9.03;;;;;;;;;;5054428;28;20712;-76
2022/04/22 03:53:43;;;;;;;10.60;9.07;;;;;;;;;;5054051;28;20203;-76
2022/04/22 03:59:01;;;;;;;10.90;8.37;;;;;;;;;;5055340;28;20207;-76
2022/04/22 04:01:29;;;;;;;9.87;8.63;;;;;;;;;;5055312;28;20658;-75
2022/04/22 04:03:59;;;;;;;10.50;8.00;;;;;;;;;;5047263;28;20250;-76
2022/04/22 04:06:28;;;;;;;10.30;7.70;;;;;;;;;;5054089;28;20203;-75
2022/04/22 04:17:17;;;;;;;9.53;6.90;;;;;;;;;;5053658;28;20226;-75
2022/04/22 04:25:18;;;;;;;7.83;5.80;;;;;;;;;;5054123;28;20249;-76
2022/04/22 04:27:49;;;;;;;7.10;6.10;;;;;;;;;;5053686;28;20231;-76
2022/04/22 04:30:17;;;;;;;7.10;5.70;;;;;;;;;;5055047;28;20203;-76
2022/04/22 04:32:46;;;;;;;6.37;5.50;;;;;;;;;;5054816;28;20202;-75
2022/04/22 04:35:14;;;;;;;8.30;5.30;;;;;;;;;;5053433;28;20678;-75
2022/04/22 04:37:44;;;;;;;6.70;5.50;;;;;;;;;;5050364;28;20690;-75
2022/04/22 04:40:13;;;;;;;9.67;5.57;;;;;;;;;;5053955;28;20211;-76
2022/04/22 04:42:41;;;;;;;6.90;5.13;;;;;;;;;;5053582;28;20217;-76
2022/04/22 04:45:12;;;;;;;8.70;5.07;;;;;;;;;;5053460;28;20288;-76
2022/04/22 04:47:41;;;;;;;8.20;5.53;;;;;;;;;;5053584;28;20564;-76
2022/04/22 04:50:10;;;;;;;7.13;5.07;;;;;;;;;;5054066;28;20225;-75
2022/04/22 04:52:42;;;;;;;6.10;4.67;;;;;;;;;;5053216;28;20208;-76
2022/04/22 04:55:11;;;;;;;5.00;4.07;;;;;;;;;;5053619;28;20261;-75
2022/04/22 04:57:41;;;;;;;7.70;4.80;;;;;;;;;;5053047;28;20219;-75
2022/04/22 05:00:18;;;;;;;6.80;4.43;;;;;;;;;;5053203;28;20210;-75
2022/04/22 05:02:46;;;;;;;5.70;4.27;;;;;;;;;;5053332;28;20203;-76
2022/04/22 05:05:16;;;;;;;6.57;4.03;;;;;;;;;;5048796;28;20219;-76
2022/04/22 05:07:48;;;;;;;7.00;4.67;;;;;;;;;;5035473;28;20610;-76
2022/04/22 05:10:17;;;;;;;4.30;3.70;;;;;;;;;;5050141;28;20231;-75
2022/04/22 05:12:46;;;;;;;5.60;4.03;;;;;;;;;;5045744;28;20204;-76
2022/04/22 05:15:17;;;;;;;5.50;3.93;;;;;;;;;;5051809;28;20208;-75
2022/04/22 05:17:46;;;;;;;3.73;3.17;;;;;;;;;;5052629;28;20270;-76
2022/04/22 05:20:15;;;;;;;4.97;3.37;;;;;;;;;;5049492;28;20199;-75
2022/04/22 05:22:44;;;;;;;4.43;3.50;;;;;;;;;;5050738;28;20617;-75
2022/04/22 05:25:13;;;;;;;5.43;3.70;;;;;;;;;;5052757;28;20550;-75
2022/04/22 05:27:42;;;;;;;5.30;3.67;;;;;;;;;;5051324;28;20227;-75
2022/04/22 05:32:59;;;;;;;5.10;3.60;;;;;;;;;;5038596;28;20336;-75
2022/04/22 05:35:28;;;;;;;4.57;3.40;;;;;;;;;;5052990;28;20199;-75
2022/04/22 05:37:58;;;;;;;6.60;3.43;;;;;;;;;;5053401;28;20280;-75
2022/04/22 05:40:28;;;;;;;6.13;3.53;;;;;;;;;;5048484;28;20203;-75
2022/04/22 05:42:57;;;;;;;3.50;3.00;;;;;;;;;;5049402;28;20203;-76
2022/04/22 05:45:26;;;;;;;4.63;3.13;;;;;;;;;;5051563;28;20586;-75
2022/04/22 05:47:56;;;;;;;3.73;3.07;;;;;;;;;;5051806;28;20257;-75
2022/04/22 05:50:27;;;;;;;4.63;3.70;;;;;;;;;;5052504;28;20203;-75
2022/04/22 05:52:55;;;;;;;5.07;3.93;;;;;;;;;;5046932;28;20206;-75
2022/04/22 05:55:25;;;;;;;4.47;3.20;;;;;;;;;;5053387;28;20208;-75
2022/04/22 05:57:53;;;;;;;4.87;3.63;;;;;;;;;;5052318;28;20226;-75
2022/04/22 06:00:23;;;;;;;4.57;3.50;;;;;;;;;;5053109;28;20670;-75
2022/04/22 06:02:53;;;;;;;6.27;3.20;;;;;;;;;;5052997;28;20206;-75
2022/04/22 06:05:22;;;;;;;3.30;3.00;;;;;;;;;;5051212;28;20288;-75
2022/04/22 06:10:31;;;;;;;6.83;3.27;;;;;;;;;;5050754;28;20255;-75
2022/04/22 06:10:41;;;;;;;3.90;3.17;;;;;;;;;;5052039;28;20206;-75
2022/04/22 06:13:09;;;;;;;5.60;3.50;;;;;;;;;;5051882;28;20211;-75
2022/04/22 06:15:38;;;;;;;4.73;3.13;;;;;;;;;;5052821;28;20203;-76
2022/04/22 06:18:06;;;;;;;4.20;3.30;;;;;;;;;;5051749;28;20230;-76
2022/04/22 06:20:35;;;;;;;4.93;3.53;;;;;;;;;;5052198;28;20540;-76
2022/04/22 06:23:06;;;;;;;5.27;3.37;;;;;;;;;;5051904;28;20256;-76
2022/04/22 06:25:34;;;;;;;3.80;3.50;;;;;;;;;;5051525;28;20226;-76
2022/04/22 06:28:03;;;;;;;6.03;3.20;;;;;;;;;;5052460;28;20276;-77
2022/04/22 06:30:31;;;;;;;4.50;3.20;;;;;;;;;;5046694;28;20199;-76
2022/04/22 06:33:03;;;;;;;4.03;3.13;;;;;;;;;;5051348;28;20294;-75
2022/04/22 06:35:32;;;;;;;5.33;2.83;;;;;;;;;;5048709;28;20204;-76
2022/04/22 06:38:01;;;;;;;6.13;3.30;;;;;;;;;;5049943;28;20227;-75
2022/04/22 06:46:07;;;;;;;5.13;3.60;;;;;;;;;;5051918;28;20877;-75
2022/04/22 06:48:35;;;;;;;6.00;3.17;;;;;;;;;;5046025;28;20224;-75
2022/04/22 06:51:13;;;;;;;4.47;3.63;;;;;;;;;;5042731;28;20241;-75
2022/04/22 06:53:42;;;;;;;5.00;3.30;;;;;;;;;;5043444;28;20293;-75
2022/04/22 06:56:13;;;;;;;4.07;3.20;;;;;;;;;;5040925;28;20610;-75
2022/04/22 06:58:43;;;;;;;4.40;3.40;;;;;;;;;;5032451;28;20232;-76
2022/04/22 07:01:13;;;;;;;8.07;3.67;;;;;;;;;;5040396;28;20203;-75
2022/04/22 07:04:01;;;;;;;5.90;3.50;;;;;;;;;;5051751;28;20253;-76
2022/04/22 07:06:36;;;;;;;4.83;3.23;;;;;;;;;;5051591;28;20212;-75
2022/04/22 07:09:05;;;;;;;5.93;3.03;;;;;;;;;;5032778;28;20191;-75
2022/04/22 07:11:36;;;;;;;4.40;3.27;;;;;;;;;;5036873;28;20240;-75
2022/04/22 07:14:05;;;;;;;4.97;3.10;;;;;;;;;;5048202;28;20199;-75
2022/04/22 07:16:35;;;;;;;4.00;3.17;;;;;;;;;;5052086;28;20203;-76
2022/04/22 07:19:04;;;;;;;4.97;3.10;;;;;;;;;;5048660;28;20207;-75
2022/04/22 07:21:33;;;;;;;3.70;3.30;;;;;;;;;;5040987;28;20203;-75
2022/04/22 07:24:02;;;;;;;7.27;3.50;;;;;;;;;;5055664;28;20789;-75
2022/04/22 07:26:32;;;;;;;5.17;3.20;;;;;;;;;;5054419;28;20234;-75
2022/04/22 07:29:04;;;;;;;5.73;3.10;;;;;;;;;;5055462;28;20206;-75
2022/04/22 07:31:33;;;;;;;5.00;3.37;;;;;;;;;;5054293;28;20293;-75
2022/04/22 07:34:02;;;;;;;5.50;3.33;;;;;;;;;;5055116;28;20241;-75
2022/04/22 07:36:30;;;;;;;5.43;3.57;;;;;;;;;;5053969;28;20215;-75
2022/04/22 07:38:59;;;;;;;5.57;3.57;;;;;;;;;;5048892;28;20207;-75
2022/04/22 07:41:29;;;;;;;4.37;3.30;;;;;;;;;;5054311;28;20564;-76
2022/04/22 07:46:58;;;;;;;4.77;3.50;;;;;;;;;;5039810;28;20310;-76
2022/04/22 07:49:28;;;;;;;7.17;3.80;;;;;;;;;;5045507;28;20195;-75
2022/04/22 07:51:57;;;;;;;5.17;3.43;;;;;;;;;;5053660;28;20207;-75
2022/04/22 07:54:27;;;;;;;19.17;4.80;;;;;;;;;;5045353;28;20200;-76
2022/04/22 07:56:56;;;;;;;6.10;4.10;;;;;;;;;;5054280;28;20215;-76
2022/04/22 07:59:28;;;;;;;5.43;3.80;;;;;;;;;;5053561;28;20597;-75
2022/04/22 08:01:59;;;;;;;5.40;3.40;;;;;;;;;;5053952;28;20256;-76
2022/04/22 08:04:30;;;;;;;5.87;3.60;;;;;;;;;;5039645;28;20235;-76
2022/04/22 08:06:59;;;;;;;4.40;3.50;;;;;;;;;;5042499;28;20227;-77
2022/04/22 08:09:47;;;;;;;7.70;3.80;;;;;;;;;;5054380;28;20207;-76
2022/04/22 08:12:18;;;;;;;6.50;3.33;;;;;;;;;;5054838;28;20557;-76
2022/04/22 08:14:47;;;;;;;5.80;3.97;;;;;;;;;;5052988;28;20199;-76
2022/04/22 08:17:17;;;;;;;8.37;3.63;;;;;;;;;;5053142;28;20215;-76
2022/04/22 08:19:46;;;;;;;5.67;3.73;;;;;;;;;;5051569;28;20207;-74
2022/04/22 08:22:15;;;;;;;4.23;3.70;;;;;;;;;;5053758;28;20202;-76
2022/04/22 08:24:44;;;;;;;5.80;4.03;;;;;;;;;;5055155;28;20199;-75
2022/04/22 08:27:12;;;;;;;4.70;3.53;;;;;;;;;;5044750;28;20232;-76
2022/04/22 08:29:44;;;;;;;5.30;3.50;;;;;;;;;;5052689;28;20659;-76
2022/04/22 08:32:12;;;;;;;5.50;3.53;;;;;;;;;;5053187;28;20914;-76
2022/04/22 08:34:43;;;;;;;6.43;4.03;;;;;;;;;;5054918;28;20561;-76
2022/04/22 08:37:11;;;;;;;4.70;4.07;;;;;;;;;;5054998;28;20610;-76
2022/04/22 08:39:39;;;;;;;4.20;3.50;;;;;;;;;;5053298;28;20667;-76
2022/04/22 08:42:09;;;;;;;5.70;3.33;;;;;;;;;;5054256;28;20269;-76
2022/04/22 08:44:57;;;;;;;4.73;3.60;;;;;;;;;;5053303;28;20207;-76
2022/04/22 08:50:16;;;;;;;6.10;3.63;;;;;;;;;;5051131;28;20210;-76
2022/04/22 08:52:50;;;;;;;5.13;3.67;;;;;;;;;;5054013;28;20203;-75
2022/04/22 08:55:20;;;;;;;4.80;3.70;;;;;;;;;;5033232;28;20213;-76
2022/04/22 08:57:49;;;;;;;6.33;3.33;;;;;;;;;;5052883;28;20222;-76
2022/04/22 09:00:22;;;;;;;5.13;3.73;;;;;;;;;;5043460;28;20302;-76
2022/04/22 09:02:51;;;;;;;5.47;3.53;;;;;;;;;;5050098;28;20219;-76
2022/04/22 09:05:21;;;;;;;5.27;3.20;;;;;;;;;;5051680;28;20678;-75
2022/04/22 09:07:51;;;;;;;4.73;3.43;;;;;;;;;;5053370;28;20250;-76
2022/04/22 09:10:19;;;;;;;4.90;3.83;;;;;;;;;;5051070;28;20238;-76
2022/04/22 09:12:52;;;;;;;4.90;3.47;;;;;;;;;;5053886;28;20211;-75
2022/04/22 09:15:23;;;;;;;5.57;3.53;;;;;;;;;;5051943;28;20203;-76
2022/04/22 09:17:57;;;;;;;7.20;3.80;;;;;;;;;;5054225;28;20314;-76
2022/04/22 09:20:31;;;;;;;4.67;3.80;;;;;;;;;;5053868;28;20203;-75
2022/04/22 09:22:59;;;;;;;5.20;3.80;;;;;;;;;;5053398;28;20222;-76
2022/04/22 09:25:28;;;;;;;7.37;3.90;;;;;;;;;;5054345;28;20210;-76
2022/04/22 09:28:08;;;;;;;4.77;3.80;;;;;;;;;;5054175;28;20227;-77
2022/04/22 09:30:37;;;;;;;5.33;3.73;;;;;;;;;;5053022;28;20215;-77
2022/04/22 09:33:09;;;;;;;4.83;4.10;;;;;;;;;;5053297;28;20639;-76
2022/04/22 09:44:14;;;;;;;5.37;4.60;;;;;;;;;;5038577;28;20667;-75
2022/04/22 09:46:43;;;;;;;5.47;4.17;;;;;;;;;;5052893;28;20277;-76
2022/04/22 09:49:39;;;;;;;5.97;4.10;;;;;;;;;;5051933;28;20212;-75
2022/04/22 09:52:09;;;;;;;5.57;4.10;;;;;;;;;;5052441;28;20264;-75
2022/04/22 09:54:39;;;;;;;5.60;4.23;;;;;;;;;;5053892;28;20199;-75
2022/04/22 09:57:27;;;;;;;4.63;4.10;;;;;;;;;;5053188;28;20223;-75
2022/04/22 09:59:56;;;;;;;5.70;4.23;;;;;;;;;;5053826;28;20203;-76
2022/04/22 10:02:27;;;;;;;8.80;4.50;;;;;;;;;;5054586;28;20203;-75
2022/04/22 10:04:56;;;;;;;6.43;4.37;;;;;;;;;;5039932;28;20203;-75
2022/04/22 10:07:30;;;;;;;7.63;4.30;;;;;;;;;;5032881;28;20232;-76
2022/04/22 10:10:01;;;;;;;5.87;4.50;;;;;;;;;;5032921;28;20199;-76
2022/04/22 10:12:31;;;;;;;7.67;4.57;;;;;;;;;;5032769;28;20213;-76
2022/04/22 10:15:03;;;;;;;5.60;4.20;;;;;;;;;;5033099;28;20238;-76
2022/04/22 10:17:33;;;;;;;6.38;4.72;;;;;;;;;;5033085;28;20219;-76
2022/04/22 10:20:02;;;;;;;5.10;4.50;;;;;;;;;;5043083;28;20207;-75
2022/04/22 10:22:33;;;;;;;4.90;4.20;;;;;;;;;;5052826;28;20210;-75
2022/04/22 10:25:03;;;;;;;5.30;4.57;;;;;;;;;;5052501;28;20210;-76
2022/04/22 10:27:33;;;;;;;5.50;4.32;;;;;;;;;;5052291;28;20714;-76
2022/04/22 10:30:02;;;;;;;7.90;4.72;;;;;;;;;;5052673;28;20187;-75
2022/04/22 10:32:33;;;;;;;6.70;4.93;;;;;;;;;;5052313;28;20253;-75
2022/04/22 10:35:03;;;;;;;4.90;4.35;;;;;;;;;;5051590;28;20663;-75
2022/04/22 10:37:34;;;;;;;5.63;4.50;;;;;;;;;;5052627;28;20302;-75
2022/04/22 10:40:03;;;;;;;6.22;4.65;;;;;;;;;;5052502;28;20214;-76
2022/04/22 10:42:32;;;;;;;7.60;4.53;;;;;;;;;;5051913;28;20818;-75
2022/04/22 10:47:49;;;;;;;6.13;5.00;;;;;;;;;;5052269;28;20234;-75
2022/04/22 10:50:33;;;;;;;5.60;4.40;;;;;;;;;;5049412;28;20207;-76
2022/04/22 10:53:07;;;;;;;7.45;5.43;;;;;;;;;;5056719;28;20191;-75
2022/04/22 10:55:37;;;;;;;6.15;5.55;;;;;;;;;;5055624;28;20198;-75
2022/04/22 10:58:26;;;;;;;7.43;5.40;;;;;;;;;;5041780;28;20215;-75
2022/04/22 11:00:57;;;;;;;7.00;5.70;;;;;;;;;;5058644;28;20218;-76
2022/04/22 11:03:27;;;;;;;6.88;5.80;;;;;;;;;;5056477;28;20203;-75
2022/04/22 11:05:59;;;;;;;8.18;5.78;;;;;;;;;;5044369;28;20198;-75
2022/04/22 11:08:33;;;;;;;7.10;6.40;;;;;;;;;;5055386;28;20222;-76
2022/04/22 11:11:13;;;;;;;8.05;6.70;;;;;;;;;;5056101;28;20206;-75
2022/04/22 11:13:44;;;;;;;11.45;6.40;;;;;;;;;;5056778;28;20210;-76
2022/04/22 11:16:16;;;;;;;9.55;6.65;;;;;;;;;;5056046;28;20249;-75
2022/04/22 11:18:45;;;;;;;9.65;6.60;;;;;;;;;;5055649;28;20247;-75
2022/04/22 11:21:15;;;;;;;7.22;6.18;;;;;;;;;;5055547;28;20195;-75
2022/04/22 11:23:45;;;;;;;9.15;7.28;;;;;;;;;;5055236;28;20206;-75
2022/04/22 11:26:14;;;;;;;10.25;7.32;;;;;;;;;;5055648;28;20212;-76
2022/04/22 11:28:44;;;;;;;8.85;6.57;;;;;;;;;;5055895;28;20227;-74
2022/04/22 11:31:14;;;;;;;10.80;7.78;;;;;;;;;;5055695;28;20603;-75
2022/04/22 11:33:46;;;;;;;8.45;7.28;;;;;;;;;;5055777;28;20272;-75
2022/04/22 11:36:15;;;;;;;8.80;7.72;;;;;;;;;;5052822;28;20203;-76
2022/04/22 11:38:48;;;;;;;8.43;7.28;;;;;;;;;;5055384;28;20219;-75
2022/04/22 11:41:17;;;;;;;8.85;7.95;;;;;;;;;;5055681;28;20214;-75
2022/04/22 11:43:46;;;;;;;8.63;7.18;;;;;;;;;;5055817;28;20183;-75
2022/04/22 11:46:15;;;;;;;12.00;8.00;;;;;;;;;;5055205;28;20567;-76
2022/04/22 11:48:48;;;;;;;10.15;7.50;;;;;;;;;;5052438;28;20230;-75
2022/04/22 11:51:20;;;;;;;8.35;7.40;;;;;;;;;;5055497;28;20183;-76
2022/04/22 11:53:54;;;;;;;9.00;8.10;;;;;;;;;;5055258;28;20198;-75
2022/04/22 11:56:23;;;;;;;8.85;8.00;;;;;;;;;;5054690;28;20209;-75
2022/04/22 11:58:52;;;;;;;11.20;8.63;;;;;;;;;;5057269;28;20226;-75
2022/04/22 12:07:00;;;;;;;12.20;8.68;;;;;;;;;;5049238;28;20561;-76
2022/04/22 12:09:30;;;;;;;12.48;9.27;;;;;;;;;;5050421;28;20288;-76
2022/04/22 12:12:00;;;;;;;11.52;8.57;;;;;;;;;;5053647;28;20673;-76
2022/04/22 12:14:30;;;;;;;11.90;9.35;;;;;;;;;;5054971;28;20219;-75
2022/04/22 12:16:59;;;;;;;10.48;9.35;;;;;;;;;;5051447;28;20604;-75
2022/04/22 12:19:29;;;;;;;12.95;9.73;;;;;;;;;;5046663;28;20617;-75
2022/04/22 12:21:58;;;;;;;11.07;9.70;;;;;;;;;;5038684;28;20192;-75
2022/04/22 12:24:26;;;;;;;10.77;9.70;;;;;;;;;;5049819;28;20253;-76
2022/04/22 12:26:56;;;;;;;11.75;10.55;;;;;;;;;;5043102;28;20230;-75
2022/04/22 12:29:30;;;;;;;11.30;10.15;;;;;;;;;;5049853;28;20259;-76
2022/04/22 12:31:59;;;;;;;11.00;9.90;;;;;;;;;;5046235;28;20203;-76
2022/04/22 12:34:31;;;;;;;11.30;10.13;;;;;;;;;;5034940;28;20208;-76
2022/04/22 12:37:01;;;;;;;13.05;10.05;;;;;;;;;;5049050;28;20222;-75
2022/04/22 12:39:34;;;;;;;10.38;9.32;;;;;;;;;;5053471;28;20241;-75
2022/04/22 12:42:05;;;;;;;11.23;9.47;;;;;;;;;;5052050;28;20246;-75
2022/04/22 12:44:33;;;;;;;11.17;9.47;;;;;;;;;;5048000;28;20199;-75
2022/04/22 12:52:45;;;;;;;11.20;9.98;;;;;;;;;;5053524;28;20210;-75
2022/04/22 12:55:17;;;;;;;10.10;8.30;;;;;;;;;;5048516;28;20199;-75
2022/04/22 12:57:58;;;;;;;9.40;8.43;;;;;;;;;;5052238;28;20219;-75
2022/04/22 13:00:27;;;;;;;10.17;9.07;;;;;;;;;;5053533;28;20286;-75
2022/04/22 13:03:06;;;;;;;9.53;8.53;;;;;;;;;;5037889;28;20801;-75
2022/04/22 13:05:35;;;;;;;8.80;7.90;;;;;;;;;;4693953;28;9999899;-75
2022/04/22 13:08:10;;;;;;;9.37;8.47;;;;;;;;;;5051490;28;20223;-75
2022/04/22 13:10:40;;;;;;;8.87;8.07;;;;;;;;;;5052198;28;20242;-74
2022/04/22 13:13:14;;;;;;;9.07;8.17;;;;;;;;;;5048971;28;20673;-74
2022/04/22 13:15:43;;;;;;;8.57;7.70;;;;;;;;;;5041732;28;20199;-76
2022/04/22 13:18:13;;;;;;;9.10;8.30;;;;;;;;;;5045146;28;20303;-75
2022/04/22 13:20:42;;;;;;;10.03;8.30;;;;;;;;;;5045640;28;20191;-75
2022/04/22 13:23:10;;;;;;;12.57;8.53;;;;;;;;;;5050097;28;20211;-74
2022/04/22 13:25:39;;;;;;;8.33;7.63;;;;;;;;;;5043515;28;20207;-75
2022/04/22 13:28:08;;;;;;;8.50;7.63;;;;;;;;;;5045817;28;20683;-73
2022/04/22 13:30:41;;;;;;;10.80;7.73;;;;;;;;;;5046983;28;20677;-75
2022/04/22 13:33:09;;;;;;;10.50;8.63;;;;;;;;;;5043916;28;20203;-74
2022/04/22 13:35:38;;;;;;;10.13;7.30;;;;;;;;;;5042920;28;20562;-74
2022/04/22 13:38:07;;;;;;;8.03;7.23;;;;;;;;;;5051533;28;20227;-75
2022/04/22 13:40:35;;;;;;;8.20;7.40;;;;;;;;;;5048928;28;20265;-73
2022/04/22 13:43:03;;;;;;;11.97;7.27;;;;;;;;;;5046469;28;20265;-74
2022/04/22 13:53:52;;;;;;;8.43;6.73;;;;;;;;;;5046753;28;20214;-74
2022/04/22 13:56:20;;;;;;;10.97;7.00;;;;;;;;;;5046932;28;20280;-74
2022/04/22 13:58:49;;;;;;;7.53;6.83;;;;;;;;;;5038280;28;20307;-75
2022/04/22 14:01:18;;;;;;;8.10;6.63;;;;;;;;;;5049981;28;20203;-74
2022/04/22 14:03:48;;;;;;;7.97;6.37;;;;;;;;;;5048074;28;20217;-74
2022/04/22 14:06:16;;;;;;;8.03;7.20;;;;;;;;;;5047320;28;20253;-74
2022/04/22 14:08:45;;;;;;;7.60;6.90;;;;;;;;;;5042938;28;20226;-76
2022/04/22 14:11:14;;;;;;;8.73;7.40;;;;;;;;;;5046608;28;20206;-75
2022/04/22 14:13:43;;;;;;;8.90;8.00;;;;;;;;;;5041059;28;20199;-75
2022/04/22 14:16:12;;;;;;;9.07;8.10;;;;;;;;;;5053291;28;20211;-75
2022/04/22 14:18:40;;;;;;;10.57;8.50;;;;;;;;;;5047285;28;20234;-74
2022/04/22 14:21:10;;;;;;;8.67;7.67;;;;;;;;;;5048262;28;20203;-74
2022/04/22 14:23:39;;;;;;;10.80;8.10;;;;;;;;;;5047642;28;20674;-74
2022/04/22 14:26:09;;;;;;;7.50;6.70;;;;;;;;;;5038961;28;20199;-74
2022/04/22 14:28:38;;;;;;;8.30;7.50;;;;;;;;;;5041382;28;20226;-74
2022/04/22 14:31:08;;;;;;;9.83;7.30;;;;;;;;;;5043491;28;20199;-74
2022/04/22 14:33:37;;;;;;;10.30;7.60;;;;;;;;;;5046572;28;20690;-74
2022/04/22 14:36:06;;;;;;;8.77;7.63;;;;;;;;;;5050694;28;20210;-74
2022/04/22 14:38:37;;;;;;;9.23;8.20;;;;;;;;;;5049576;28;20261;-75
2022/04/22 14:41:06;;;;;;;11.43;7.33;;;;;;;;;;5046592;28;20218;-75
2022/04/22 14:43:34;;;;;;;8.60;7.80;;;;;;;;;;5050515;28;20264;-75
2022/04/22 14:46:05;;;;;;;8.23;7.40;;;;;;;;;;5051578;28;21115;-75
2022/04/22 14:48:34;;;;;;;8.47;7.17;;;;;;;;;;5050451;28;20580;-75
2022/04/22 14:51:03;;;;;;;11.43;8.03;;;;;;;;;;5047503;28;20250;-75
2022/04/22 14:53:32;;;;;;;9.70;7.70;;;;;;;;;;5048151;28;20670;-75
2022/04/22 14:56:02;;;;;;;8.90;7.37;;;;;;;;;;5044705;28;20264;-76
2022/04/22 14:58:30;;;;;;;8.50;7.47;;;;;;;;;;5052168;28;20223;-75
2022/04/22 15:01:00;;;;;;;8.17;7.20;;;;;;;;;;5048712;28;20207;-75
2022/04/22 15:03:30;;;;;;;7.83;7.03;;;;;;;;;;5050236;28;20281;-75
2022/04/22 15:05:58;;;;;;;9.13;7.97;;;;;;;;;;5051524;28;20204;-75
2022/04/22 15:08:27;;;;;;;8.57;7.50;;;;;;;;;;5047087;28;20231;-75
2022/04/22 15:10:58;;;;;;;10.53;7.47;;;;;;;;;;5049673;28;20219;-74
2022/04/22 15:13:33;;;;;;;7.80;7.07;;;;;;;;;;5046391;28;20231;-75
2022/04/22 15:16:01;;;;;;;10.27;7.07;;;;;;;;;;5048100;28;20199;-74
2022/04/22 15:24:12;;;;;;;3.80;3.10;;;;;;;;;;5042282;28;20436;-75
2022/04/22 15:26:42;;;;;;;2.93;2.60;;;;;;;;;;5045299;28;20210;-76
2022/04/22 15:29:12;;;;;;;3.67;2.50;;;;;;;;;;5047426;28;20199;-75
2022/04/22 15:31:41;;;;;;;4.17;2.87;;;;;;;;;;5050629;28;20203;-74
2022/04/22 15:34:10;;;;;;;2.70;2.40;;;;;;;;;;5048480;28;20208;-75
2022/04/22 15:36:39;;;;;;;3.57;2.80;;;;;;;;;;5047902;28;20203;-75
2022/04/22 15:39:07;;;;;;;3.97;2.70;;;;;;;;;;5054865;28;20547;-74
2022/04/22 15:41:36;;;;;;;3.03;2.50;;;;;;;;;;5054217;28;20685;-75
2022/04/22 15:44:05;;;;;;;3.00;2.80;;;;;;;;;;5054179;28;20224;-74
2022/04/22 15:46:35;;;;;;;3.77;2.70;;;;;;;;;;5048854;28;20729;-74
2022/04/22 15:49:03;;;;;;;3.30;2.90;;;;;;;;;;5053502;28;20740;-75
2022/04/22 15:51:32;;;;;;;3.97;2.87;;;;;;;;;;5053897;28;20210;-74
2022/04/22 15:54:01;;;;;;;4.57;4.17;;;;;;;;;;5050851;28;20202;-74
2022/04/22 15:56:33;;;;;;;3.77;3.27;;;;;;;;;;5054428;28;20651;-74
2022/04/22 15:59:03;;;;;;;4.03;3.13;;;;;;;;;;5051152;28;20195;-74
2022/04/22 16:01:35;;;;;;;4.40;3.13;;;;;;;;;;5050014;28;20309;-74
2022/04/22 16:04:07;;;;;;;3.43;2.93;;;;;;;;;;5038211;28;20614;-74
2022/04/22 16:06:38;;;;;;;3.50;3.20;;;;;;;;;;5047414;28;20199;-73
2022/04/22 16:09:08;;;;;;;5.60;3.47;;;;;;;;;;5049815;28;20574;-73
2022/04/22 16:17:09;;;;;;;3.93;3.40;;;;;;;;;;5050865;28;20763;-73
2022/04/22 16:19:40;;;;;;;4.00;3.50;;;;;;;;;;5051337;28;20203;-73